sensor_id;sensor_type;location;lat;lon;timestamp;P1;durP1;ratioP1;P2;durP2;ratioP2
28245;SDS011;15510;52.512;13.300;2022-10-15T00:05:54;17.40;;;13.95;;
28245;SDS011;15510;52.512;13.300;2022-10-15T00:08:19;18.63;;;14.95;;
28245;SDS011;15510;52.512;13.300;2022-10-15T00:10:45;17.17;;;14.40;;
28245;SDS011;15510;52.512;13.300;2022-10-15T00:15:45;18.48;;;14.57;;
28245;SDS011;15510;52.512;13.300;2022-10-15T00:18:11;19.50;;;14.75;;
28245;SDS011;15510;52.512;13.300;2022-10-15T00:20:39;20.85;;;14.90;;
28245;SDS011;15510;52.512;13.300;2022-10-15T00:23:05;22.90;;;16.20;;
28245;SDS011;15510;52.512;13.300;2022-10-15T00:25:31;19.95;;;14.95;;
28245;SDS011;15510;52.512;13.300;2022-10-15T00:27:57;20.23;;;16.85;;
28245;SDS011;15510;52.512;13.300;2022-10-15T00:30:23;20.45;;;15.68;;
28245;SDS011;15510;52.512;13.300;2022-10-15T00:32:49;21.42;;;16.55;;
28245;SDS011;15510;52.512;13.300;2022-10-15T00:35:15;21.55;;;16.13;;
28245;SDS011;15510;52.512;13.300;2022-10-15T00:37:40;20.35;;;16.65;;
28245;SDS011;15510;52.512;13.300;2022-10-15T00:40:08;22.25;;;16.48;;
28245;SDS011;15510;52.512;13.300;2022-10-15T00:42:34;26.10;;;16.65;;
28245;SDS011;15510;52.512;13.300;2022-10-15T00:44:59;24.23;;;17.02;;
28245;SDS011;15510;52.512;13.300;2022-10-15T00:47:36;19.70;;;16.13;;
28245;SDS011;15510;52.512;13.300;2022-10-15T00:50:09;23.23;;;15.05;;
28245;SDS011;15510;52.512;13.300;2022-10-15T00:55:26;21.20;;;15.98;;
28245;SDS011;15510;52.512;13.300;2022-10-15T00:57:58;20.60;;;16.05;;
28245;SDS011;15510;52.512;13.300;2022-10-15T01:00:27;19.38;;;16.70;;
28245;SDS011;15510;52.512;13.300;2022-10-15T01:02:55;19.63;;;16.30;;
28245;SDS011;15510;52.512;13.300;2022-10-15T01:05:20;20.52;;;16.85;;
28245;SDS011;15510;52.512;13.300;2022-10-15T01:07:47;19.65;;;15.63;;
28245;SDS011;15510;52.512;13.300;2022-10-15T01:10:14;20.80;;;16.90;;
28245;SDS011;15510;52.512;13.300;2022-10-15T01:18:09;23.98;;;17.23;;
28245;SDS011;15510;52.512;13.300;2022-10-15T01:40:36;21.92;;;17.10;;
28245;SDS011;15510;52.512;13.300;2022-10-15T01:42:59;22.23;;;17.35;;
28245;SDS011;15510;52.512;13.300;2022-10-15T01:45:39;20.73;;;16.55;;
28245;SDS011;15510;52.512;13.300;2022-10-15T01:48:42;20.67;;;16.65;;
28245;SDS011;15510;52.512;13.300;2022-10-15T01:51:09;21.23;;;16.30;;
28245;SDS011;15510;52.512;13.300;2022-10-15T01:53:36;21.05;;;17.42;;
28245;SDS011;15510;52.512;13.300;2022-10-15T01:56:06;20.08;;;16.70;;
28245;SDS011;15510;52.512;13.300;2022-10-15T01:58:36;20.65;;;16.98;;
28245;SDS011;15510;52.512;13.300;2022-10-15T02:01:06;21.95;;;18.15;;
28245;SDS011;15510;52.512;13.300;2022-10-15T02:03:44;24.48;;;18.42;;
28245;SDS011;15510;52.512;13.300;2022-10-15T02:06:12;22.45;;;17.85;;
28245;SDS011;15510;52.512;13.300;2022-10-15T02:14:40;23.23;;;18.50;;
28245;SDS011;15510;52.512;13.300;2022-10-15T02:17:38;22.80;;;17.40;;
28245;SDS011;15510;52.512;13.300;2022-10-15T02:20:19;22.30;;;17.80;;
28245;SDS011;15510;52.512;13.300;2022-10-15T02:22:55;22.92;;;16.58;;
28245;SDS011;15510;52.512;13.300;2022-10-15T02:25:28;22.38;;;18.02;;
28245;SDS011;15510;52.512;13.300;2022-10-15T02:27:55;24.83;;;18.05;;
28245;SDS011;15510;52.512;13.300;2022-10-15T02:30:25;21.30;;;18.30;;
28245;SDS011;15510;52.512;13.300;2022-10-15T02:32:53;24.80;;;17.75;;
28245;SDS011;15510;52.512;13.300;2022-10-15T02:35:22;25.02;;;18.27;;
28245;SDS011;15510;52.512;13.300;2022-10-15T02:37:49;24.80;;;16.98;;
28245;SDS011;15510;52.512;13.300;2022-10-15T02:40:19;22.45;;;17.35;;
28245;SDS011;15510;52.512;13.300;2022-10-15T02:42:50;23.20;;;18.65;;
28245;SDS011;15510;52.512;13.300;2022-10-15T02:45:17;20.70;;;17.73;;
28245;SDS011;15510;52.512;13.300;2022-10-15T02:47:42;23.35;;;17.90;;
28245;SDS011;15510;52.512;13.300;2022-10-15T02:50:08;23.77;;;17.50;;
28245;SDS011;15510;52.512;13.300;2022-10-15T02:52:38;22.50;;;17.00;;
28245;SDS011;15510;52.512;13.300;2022-10-15T02:55:03;20.85;;;17.02;;
28245;SDS011;15510;52.512;13.300;2022-10-15T02:57:30;22.52;;;18.05;;
28245;SDS011;15510;52.512;13.300;2022-10-15T02:59:56;21.27;;;17.15;;
28245;SDS011;15510;52.512;13.300;2022-10-15T03:02:21;21.83;;;17.55;;
28245;SDS011;15510;52.512;13.300;2022-10-15T03:04:47;21.85;;;17.23;;
28245;SDS011;15510;52.512;13.300;2022-10-15T03:07:13;25.60;;;19.55;;
28245;SDS011;15510;52.512;13.300;2022-10-15T03:09:39;20.73;;;17.42;;
28245;SDS011;15510;52.512;13.300;2022-10-15T03:12:05;22.00;;;17.85;;
28245;SDS011;15510;52.512;13.300;2022-10-15T03:14:31;22.45;;;17.85;;
28245;SDS011;15510;52.512;13.300;2022-10-15T03:16:59;20.27;;;16.80;;
28245;SDS011;15510;52.512;13.300;2022-10-15T03:19:26;20.40;;;16.77;;
28245;SDS011;15510;52.512;13.300;2022-10-15T03:21:52;24.50;;;17.70;;
28245;SDS011;15510;52.512;13.300;2022-10-15T03:24:18;22.20;;;18.20;;
28245;SDS011;15510;52.512;13.300;2022-10-15T03:26:44;21.08;;;17.25;;
28245;SDS011;15510;52.512;13.300;2022-10-15T03:29:09;23.42;;;17.08;;
28245;SDS011;15510;52.512;13.300;2022-10-15T03:32:01;24.55;;;17.17;;
28245;SDS011;15510;52.512;13.300;2022-10-15T03:34:27;22.70;;;17.40;;
28245;SDS011;15510;52.512;13.300;2022-10-15T03:36:53;23.42;;;16.70;;
28245;SDS011;15510;52.512;13.300;2022-10-15T03:39:18;22.58;;;17.88;;
28245;SDS011;15510;52.512;13.300;2022-10-15T03:41:44;23.65;;;17.77;;
28245;SDS011;15510;52.512;13.300;2022-10-15T03:44:17;22.92;;;16.08;;
28245;SDS011;15510;52.512;13.300;2022-10-15T03:46:51;21.02;;;16.42;;
28245;SDS011;15510;52.512;13.300;2022-10-15T03:49:21;23.17;;;17.83;;
28245;SDS011;15510;52.512;13.300;2022-10-15T03:51:47;23.08;;;17.40;;
28245;SDS011;15510;52.512;13.300;2022-10-15T03:54:12;21.23;;;16.77;;
28245;SDS011;15510;52.512;13.300;2022-10-15T03:56:46;22.65;;;18.58;;
28245;SDS011;15510;52.512;13.300;2022-10-15T03:59:24;19.90;;;17.48;;
28245;SDS011;15510;52.512;13.300;2022-10-15T04:01:56;25.45;;;17.98;;
28245;SDS011;15510;52.512;13.300;2022-10-15T04:04:22;24.50;;;17.85;;
28245;SDS011;15510;52.512;13.300;2022-10-15T04:06:47;24.85;;;17.92;;
28245;SDS011;15510;52.512;13.300;2022-10-15T04:09:15;20.92;;;16.95;;
28245;SDS011;15510;52.512;13.300;2022-10-15T04:11:40;24.73;;;16.27;;
28245;SDS011;15510;52.512;13.300;2022-10-15T04:14:07;20.65;;;17.08;;
28245;SDS011;15510;52.512;13.300;2022-10-15T04:16:34;24.75;;;17.80;;
28245;SDS011;15510;52.512;13.300;2022-10-15T04:19:08;21.45;;;16.40;;
28245;SDS011;15510;52.512;13.300;2022-10-15T04:21:33;21.02;;;16.58;;
28245;SDS011;15510;52.512;13.300;2022-10-15T04:24:02;21.52;;;16.42;;
28245;SDS011;15510;52.512;13.300;2022-10-15T04:26:33;23.08;;;17.33;;
28245;SDS011;15510;52.512;13.300;2022-10-15T04:28:59;20.70;;;16.85;;
28245;SDS011;15510;52.512;13.300;2022-10-15T04:31:26;21.83;;;17.38;;
28245;SDS011;15510;52.512;13.300;2022-10-15T04:33:52;22.00;;;17.60;;
28245;SDS011;15510;52.512;13.300;2022-10-15T04:36:18;22.42;;;17.52;;
28245;SDS011;15510;52.512;13.300;2022-10-15T04:38:51;21.42;;;16.65;;
28245;SDS011;15510;52.512;13.300;2022-10-15T04:41:39;23.42;;;16.85;;
28245;SDS011;15510;52.512;13.300;2022-10-15T04:44:12;18.80;;;15.73;;
28245;SDS011;15510;52.512;13.300;2022-10-15T04:46:41;22.13;;;16.52;;
28245;SDS011;15510;52.512;13.300;2022-10-15T04:49:21;19.02;;;16.02;;
28245;SDS011;15510;52.512;13.300;2022-10-15T04:51:48;21.52;;;16.48;;
28245;SDS011;15510;52.512;13.300;2022-10-15T04:54:20;20.23;;;16.45;;
28245;SDS011;15510;52.512;13.300;2022-10-15T04:57:01;21.77;;;15.23;;
28245;SDS011;15510;52.512;13.300;2022-10-15T04:59:29;20.75;;;15.43;;
28245;SDS011;15510;52.512;13.300;2022-10-15T05:02:20;19.17;;;14.13;;
28245;SDS011;15510;52.512;13.300;2022-10-15T05:04:52;22.42;;;15.80;;
28245;SDS011;15510;52.512;13.300;2022-10-15T05:07:18;19.27;;;15.68;;
28245;SDS011;15510;52.512;13.300;2022-10-15T05:09:45;17.40;;;14.38;;
28245;SDS011;15510;52.512;13.300;2022-10-15T05:12:11;18.40;;;14.57;;
28245;SDS011;15510;52.512;13.300;2022-10-15T05:14:38;21.10;;;15.60;;
28245;SDS011;15510;52.512;13.300;2022-10-15T05:17:09;19.02;;;14.02;;
28245;SDS011;15510;52.512;13.300;2022-10-15T05:19:39;19.15;;;15.20;;
28245;SDS011;15510;52.512;13.300;2022-10-15T05:22:08;18.90;;;14.63;;
28245;SDS011;15510;52.512;13.300;2022-10-15T05:24:40;17.90;;;14.65;;
28245;SDS011;15510;52.512;13.300;2022-10-15T05:27:27;30.63;;;26.20;;
28245;SDS011;15510;52.512;13.300;2022-10-15T05:29:53;21.33;;;16.17;;
28245;SDS011;15510;52.512;13.300;2022-10-15T05:32:18;20.10;;;15.10;;
28245;SDS011;15510;52.512;13.300;2022-10-15T05:34:44;24.33;;;16.40;;
28245;SDS011;15510;52.512;13.300;2022-10-15T05:37:13;20.83;;;15.70;;
28245;SDS011;15510;52.512;13.300;2022-10-15T05:39:40;21.77;;;14.52;;
28245;SDS011;15510;52.512;13.300;2022-10-15T05:42:05;18.45;;;14.63;;
28245;SDS011;15510;52.512;13.300;2022-10-15T05:44:38;22.05;;;14.65;;
28245;SDS011;15510;52.512;13.300;2022-10-15T05:47:03;20.58;;;15.63;;
28245;SDS011;15510;52.512;13.300;2022-10-15T05:49:33;22.23;;;15.52;;
28245;SDS011;15510;52.512;13.300;2022-10-15T05:52:27;20.58;;;15.43;;
28245;SDS011;15510;52.512;13.300;2022-10-15T05:55:16;22.52;;;15.52;;
28245;SDS011;15510;52.512;13.300;2022-10-15T05:57:41;22.88;;;15.75;;
28245;SDS011;15510;52.512;13.300;2022-10-15T06:00:07;20.17;;;15.88;;
28245;SDS011;15510;52.512;13.300;2022-10-15T06:02:38;21.40;;;15.02;;
28245;SDS011;15510;52.512;13.300;2022-10-15T06:05:05;22.55;;;16.50;;
28245;SDS011;15510;52.512;13.300;2022-10-15T06:07:31;21.38;;;15.05;;
28245;SDS011;15510;52.512;13.300;2022-10-15T06:10:01;20.52;;;14.93;;
28245;SDS011;15510;52.512;13.300;2022-10-15T06:12:32;18.63;;;14.45;;
28245;SDS011;15510;52.512;13.300;2022-10-15T06:14:57;19.08;;;15.27;;
28245;SDS011;15510;52.512;13.300;2022-10-15T06:17:23;20.30;;;15.63;;
28245;SDS011;15510;52.512;13.300;2022-10-15T06:19:49;21.02;;;16.00;;
28245;SDS011;15510;52.512;13.300;2022-10-15T06:22:15;20.40;;;15.85;;
28245;SDS011;15510;52.512;13.300;2022-10-15T06:24:40;21.38;;;15.85;;
28245;SDS011;15510;52.512;13.300;2022-10-15T06:27:06;22.10;;;16.40;;
28245;SDS011;15510;52.512;13.300;2022-10-15T06:29:33;20.67;;;15.60;;
28245;SDS011;15510;52.512;13.300;2022-10-15T06:31:59;19.55;;;14.52;;
28245;SDS011;15510;52.512;13.300;2022-10-15T06:34:26;20.30;;;14.40;;
28245;SDS011;15510;52.512;13.300;2022-10-15T06:36:51;18.42;;;14.20;;
28245;SDS011;15510;52.512;13.300;2022-10-15T06:39:17;18.80;;;15.02;;
28245;SDS011;15510;52.512;13.300;2022-10-15T06:41:43;18.98;;;14.55;;
28245;SDS011;15510;52.512;13.300;2022-10-15T06:44:08;15.23;;;13.38;;
28245;SDS011;15510;52.512;13.300;2022-10-15T06:46:35;17.23;;;13.93;;
28245;SDS011;15510;52.512;13.300;2022-10-15T06:49:01;15.70;;;12.93;;
28245;SDS011;15510;52.512;13.300;2022-10-15T06:51:27;17.05;;;14.05;;
28245;SDS011;15510;52.512;13.300;2022-10-15T06:53:54;18.90;;;13.60;;
28245;SDS011;15510;52.512;13.300;2022-10-15T06:56:20;19.40;;;13.75;;
28245;SDS011;15510;52.512;13.300;2022-10-15T06:58:46;17.52;;;14.07;;
28245;SDS011;15510;52.512;13.300;2022-10-15T07:01:11;16.67;;;13.32;;
28245;SDS011;15510;52.512;13.300;2022-10-15T07:03:37;17.55;;;12.85;;
28245;SDS011;15510;52.512;13.300;2022-10-15T07:06:05;14.98;;;12.93;;
28245;SDS011;15510;52.512;13.300;2022-10-15T07:08:32;17.70;;;12.98;;
28245;SDS011;15510;52.512;13.300;2022-10-15T07:11:02;16.30;;;13.23;;
28245;SDS011;15510;52.512;13.300;2022-10-15T07:13:29;15.02;;;12.35;;
28245;SDS011;15510;52.512;13.300;2022-10-15T07:16:02;16.75;;;12.98;;
28245;SDS011;15510;52.512;13.300;2022-10-15T07:18:32;14.98;;;12.32;;
28245;SDS011;15510;52.512;13.300;2022-10-15T07:20:58;15.05;;;12.57;;
28245;SDS011;15510;52.512;13.300;2022-10-15T07:23:24;15.85;;;12.25;;
28245;SDS011;15510;52.512;13.300;2022-10-15T07:25:50;16.98;;;12.45;;
28245;SDS011;15510;52.512;13.300;2022-10-15T07:28:15;15.55;;;11.90;;
28245;SDS011;15510;52.512;13.300;2022-10-15T07:30:41;15.07;;;11.23;;
28245;SDS011;15510;52.512;13.300;2022-10-15T07:33:06;14.60;;;11.23;;
28245;SDS011;15510;52.512;13.300;2022-10-15T07:35:33;12.55;;;11.13;;
28245;SDS011;15510;52.512;13.300;2022-10-15T07:38:01;15.52;;;11.60;;
28245;SDS011;15510;52.512;13.300;2022-10-15T07:40:27;12.02;;;10.52;;
28245;SDS011;15510;52.512;13.300;2022-10-15T07:42:53;15.63;;;11.55;;
28245;SDS011;15510;52.512;13.300;2022-10-15T07:45:24;11.75;;;10.55;;
28245;SDS011;15510;52.512;13.300;2022-10-15T07:47:52;13.82;;;10.65;;
28245;SDS011;15510;52.512;13.300;2022-10-15T07:50:18;14.05;;;10.75;;
28245;SDS011;15510;52.512;13.300;2022-10-15T07:52:44;13.07;;;10.63;;
28245;SDS011;15510;52.512;13.300;2022-10-15T07:55:11;14.10;;;10.82;;
28245;SDS011;15510;52.512;13.300;2022-10-15T07:57:37;12.88;;;10.20;;
28245;SDS011;15510;52.512;13.300;2022-10-15T08:00:03;12.00;;;10.25;;
28245;SDS011;15510;52.512;13.300;2022-10-15T08:02:37;12.00;;;10.68;;
28245;SDS011;15510;52.512;13.300;2022-10-15T08:05:03;11.23;;;9.40;;
28245;SDS011;15510;52.512;13.300;2022-10-15T08:07:28;12.10;;;9.70;;
28245;SDS011;15510;52.512;13.300;2022-10-15T08:09:54;9.70;;;8.77;;
28245;SDS011;15510;52.512;13.300;2022-10-15T08:12:20;11.30;;;9.00;;
28245;SDS011;15510;52.512;13.300;2022-10-15T08:14:45;15.02;;;9.43;;
28245;SDS011;15510;52.512;13.300;2022-10-15T08:17:11;13.07;;;10.65;;
28245;SDS011;15510;52.512;13.300;2022-10-15T08:19:37;11.50;;;9.20;;
28245;SDS011;15510;52.512;13.300;2022-10-15T08:22:02;9.57;;;8.07;;
28245;SDS011;15510;52.512;13.300;2022-10-15T08:24:28;11.20;;;8.55;;
28245;SDS011;15510;52.512;13.300;2022-10-15T08:26:55;10.52;;;8.32;;
28245;SDS011;15510;52.512;13.300;2022-10-15T08:29:21;10.63;;;8.23;;
28245;SDS011;15510;52.512;13.300;2022-10-15T08:31:47;12.90;;;8.20;;
28245;SDS011;15510;52.512;13.300;2022-10-15T08:34:13;11.43;;;7.75;;
28245;SDS011;15510;52.512;13.300;2022-10-15T08:36:39;8.60;;;7.70;;
28245;SDS011;15510;52.512;13.300;2022-10-15T08:39:04;9.02;;;7.18;;
28245;SDS011;15510;52.512;13.300;2022-10-15T08:44:02;9.05;;;7.45;;
28245;SDS011;15510;52.512;13.300;2022-10-15T08:46:39;10.10;;;7.18;;
28245;SDS011;15510;52.512;13.300;2022-10-15T08:49:13;10.30;;;7.60;;
28245;SDS011;15510;52.512;13.300;2022-10-15T08:51:53;10.68;;;7.90;;
28245;SDS011;15510;52.512;13.300;2022-10-15T08:54:22;7.80;;;7.00;;
28245;SDS011;15510;52.512;13.300;2022-10-15T08:56:59;7.55;;;6.85;;
28245;SDS011;15510;52.512;13.300;2022-10-15T09:00:37;8.90;;;6.82;;
28245;SDS011;15510;52.512;13.300;2022-10-15T09:02:47;6.85;;;6.15;;
28245;SDS011;15510;52.512;13.300;2022-10-15T09:05:32;6.70;;;6.00;;
28245;SDS011;15510;52.512;13.300;2022-10-15T09:10:49;7.05;;;5.47;;
28245;SDS011;15510;52.512;13.300;2022-10-15T09:13:20;35.03;;;27.88;;
28245;SDS011;15510;52.512;13.300;2022-10-15T09:15:55;7.30;;;6.47;;
28245;SDS011;15510;52.512;13.300;2022-10-15T09:18:45;10.45;;;6.47;;
28245;SDS011;15510;52.512;13.300;2022-10-15T09:21:13;7.97;;;6.88;;
28245;SDS011;15510;52.512;13.300;2022-10-15T09:23:41;8.40;;;7.18;;
28245;SDS011;15510;52.512;13.300;2022-10-15T09:26:14;10.15;;;8.50;;
28245;SDS011;15510;52.512;13.300;2022-10-15T09:31:46;10.27;;;7.70;;
28245;SDS011;15510;52.512;13.300;2022-10-15T09:34:30;8.50;;;7.60;;
28245;SDS011;15510;52.512;13.300;2022-10-15T09:37:04;14.93;;;7.60;;
28245;SDS011;15510;52.512;13.300;2022-10-15T09:44:48;9.50;;;7.32;;
28245;SDS011;15510;52.512;13.300;2022-10-15T09:47:23;12.38;;;7.55;;
28245;SDS011;15510;52.512;13.300;2022-10-15T09:49:58;7.85;;;6.97;;
28245;SDS011;15510;52.512;13.300;2022-10-15T09:57:30;6.68;;;6.00;;
28245;SDS011;15510;52.512;13.300;2022-10-15T09:59:59;6.75;;;6.15;;
28245;SDS011;15510;52.512;13.300;2022-10-15T10:02:26;8.13;;;5.82;;
28245;SDS011;15510;52.512;13.300;2022-10-15T10:04:53;9.38;;;8.23;;
28245;SDS011;15510;52.512;13.300;2022-10-15T10:07:29;6.78;;;6.18;;
28245;SDS011;15510;52.512;13.300;2022-10-15T10:09:57;7.65;;;6.38;;
28245;SDS011;15510;52.512;13.300;2022-10-15T10:12:34;7.97;;;5.63;;
28245;SDS011;15510;52.512;13.300;2022-10-15T10:15:04;6.75;;;6.15;;
28245;SDS011;15510;52.512;13.300;2022-10-15T10:17:52;5.88;;;5.35;;
28245;SDS011;15510;52.512;13.300;2022-10-15T10:20:22;7.15;;;6.45;;
28245;SDS011;15510;52.512;13.300;2022-10-15T10:22:50;9.07;;;6.00;;
28245;SDS011;15510;52.512;13.300;2022-10-15T10:27:51;9.45;;;7.20;;
28245;SDS011;15510;52.512;13.300;2022-10-15T10:30:18;6.90;;;5.50;;
28245;SDS011;15510;52.512;13.300;2022-10-15T10:32:47;8.55;;;5.30;;
28245;SDS011;15510;52.512;13.300;2022-10-15T10:35:20;6.95;;;5.47;;
28245;SDS011;15510;52.512;13.300;2022-10-15T10:37:59;6.07;;;5.47;;
28245;SDS011;15510;52.512;13.300;2022-10-15T10:40:27;5.78;;;5.28;;
28245;SDS011;15510;52.512;13.300;2022-10-15T10:45:35;6.30;;;5.63;;
28245;SDS011;15510;52.512;13.300;2022-10-15T10:48:17;7.43;;;5.50;;
28245;SDS011;15510;52.512;13.300;2022-10-15T10:50:45;5.50;;;4.95;;
28245;SDS011;15510;52.512;13.300;2022-10-15T10:53:32;5.90;;;5.40;;
28245;SDS011;15510;52.512;13.300;2022-10-15T10:55:58;7.93;;;5.07;;
28245;SDS011;15510;52.512;13.300;2022-10-15T10:58:28;5.88;;;5.22;;
28245;SDS011;15510;52.512;13.300;2022-10-15T11:00:57;5.53;;;4.88;;
28245;SDS011;15510;52.512;13.300;2022-10-15T11:03:30;5.28;;;4.82;;
28245;SDS011;15510;52.512;13.300;2022-10-15T11:08:44;6.65;;;5.95;;
28245;SDS011;15510;52.512;13.300;2022-10-15T11:11:36;6.03;;;4.10;;
28245;SDS011;15510;52.512;13.300;2022-10-15T11:19:54;4.47;;;4.07;;
28245;SDS011;15510;52.512;13.300;2022-10-15T11:25:32;10.25;;;4.97;;
28245;SDS011;15510;52.512;13.300;2022-10-15T11:33:57;6.45;;;3.97;;
28245;SDS011;15510;52.512;13.300;2022-10-15T11:42:36;12.52;;;10.23;;
28245;SDS011;15510;52.512;13.300;2022-10-15T11:48:08;16.75;;;13.25;;
28245;SDS011;15510;52.512;13.300;2022-10-15T11:50:56;7.07;;;4.40;;
28245;SDS011;15510;52.512;13.300;2022-10-15T11:53:39;6.10;;;4.93;;
28245;SDS011;15510;52.512;13.300;2022-10-15T11:56:21;9.18;;;5.35;;
28245;SDS011;15510;52.512;13.300;2022-10-15T11:59:00;8.35;;;6.72;;
28245;SDS011;15510;52.512;13.300;2022-10-15T12:01:58;6.13;;;4.90;;
28245;SDS011;15510;52.512;13.300;2022-10-15T12:07:15;6.45;;;4.63;;
28245;SDS011;15510;52.512;13.300;2022-10-15T12:09:51;5.85;;;4.15;;
28245;SDS011;15510;52.512;13.300;2022-10-15T12:18:12;5.03;;;4.55;;
28245;SDS011;15510;52.512;13.300;2022-10-15T12:20:49;6.47;;;4.85;;
28245;SDS011;15510;52.512;13.300;2022-10-15T12:23:21;4.65;;;3.30;;
28245;SDS011;15510;52.512;13.300;2022-10-15T12:25:49;16.52;;;13.18;;
28245;SDS011;15510;52.512;13.300;2022-10-15T12:28:22;12.50;;;10.13;;
28245;SDS011;15510;52.512;13.300;2022-10-15T12:35:54;5.68;;;4.00;;
28245;SDS011;15510;52.512;13.300;2022-10-15T12:38:31;4.82;;;3.50;;
28245;SDS011;15510;52.512;13.300;2022-10-15T12:41:04;4.80;;;3.08;;
28245;SDS011;15510;52.512;13.300;2022-10-15T12:43:36;4.50;;;3.40;;
28245;SDS011;15510;52.512;13.300;2022-10-15T12:46:05;3.75;;;3.00;;
28245;SDS011;15510;52.512;13.300;2022-10-15T12:48:36;3.83;;;3.15;;
28245;SDS011;15510;52.512;13.300;2022-10-15T12:53:41;3.75;;;2.60;;
28245;SDS011;15510;52.512;13.300;2022-10-15T12:58:45;51.60;;;27.90;;
28245;SDS011;15510;52.512;13.300;2022-10-15T13:03:39;6.28;;;5.53;;
28245;SDS011;15510;52.512;13.300;2022-10-15T13:13:51;17.60;;;12.48;;
28245;SDS011;15510;52.512;13.300;2022-10-15T13:16:20;5.35;;;4.13;;
28245;SDS011;15510;52.512;13.300;2022-10-15T13:18:48;5.75;;;4.60;;
28245;SDS011;15510;52.512;13.300;2022-10-15T13:21:16;7.18;;;5.57;;
28245;SDS011;15510;52.512;13.300;2022-10-15T13:23:45;3.67;;;2.70;;
28245;SDS011;15510;52.512;13.300;2022-10-15T13:26:25;1.70;;;1.60;;
28245;SDS011;15510;52.512;13.300;2022-10-15T13:28:51;1.95;;;1.85;;
28245;SDS011;15510;52.512;13.300;2022-10-15T13:31:27;4.63;;;3.95;;
28245;SDS011;15510;52.512;13.300;2022-10-15T13:34:02;5.43;;;4.93;;
28245;SDS011;15510;52.512;13.300;2022-10-15T13:36:34;1.85;;;1.45;;
28245;SDS011;15510;52.512;13.300;2022-10-15T13:39:02;3.15;;;2.05;;
28245;SDS011;15510;52.512;13.300;2022-10-15T13:41:32;2.90;;;2.28;;
28245;SDS011;15510;52.512;13.300;2022-10-15T13:44:00;5.18;;;3.10;;
28245;SDS011;15510;52.512;13.300;2022-10-15T13:46:28;5.30;;;2.13;;
28245;SDS011;15510;52.512;13.300;2022-10-15T13:48:58;2.90;;;1.63;;
28245;SDS011;15510;52.512;13.300;2022-10-15T13:51:27;2.72;;;1.63;;
28245;SDS011;15510;52.512;13.300;2022-10-15T13:53:57;3.22;;;2.05;;
28245;SDS011;15510;52.512;13.300;2022-10-15T13:56:26;2.00;;;1.65;;
28245;SDS011;15510;52.512;13.300;2022-10-15T13:58:56;3.30;;;2.03;;
28245;SDS011;15510;52.512;13.300;2022-10-15T14:01:24;2.38;;;2.15;;
28245;SDS011;15510;52.512;13.300;2022-10-15T14:03:52;2.25;;;2.03;;
28245;SDS011;15510;52.512;13.300;2022-10-15T14:06:23;1.92;;;1.67;;
28245;SDS011;15510;52.512;13.300;2022-10-15T14:09:38;2.20;;;1.90;;
28245;SDS011;15510;52.512;13.300;2022-10-15T14:11:51;2.85;;;2.63;;
28245;SDS011;15510;52.512;13.300;2022-10-15T14:14:28;2.20;;;1.42;;
28245;SDS011;15510;52.512;13.300;2022-10-15T14:16:59;3.45;;;1.65;;
28245;SDS011;15510;52.512;13.300;2022-10-15T14:19:30;2.30;;;2.10;;
28245;SDS011;15510;52.512;13.300;2022-10-15T14:21:57;3.28;;;1.98;;
28245;SDS011;15510;52.512;13.300;2022-10-15T14:24:34;2.00;;;1.80;;
28245;SDS011;15510;52.512;13.300;2022-10-15T14:27:04;2.03;;;1.80;;
28245;SDS011;15510;52.512;13.300;2022-10-15T14:29:50;1.52;;;1.42;;
28245;SDS011;15510;52.512;13.300;2022-10-15T14:32:25;2.67;;;2.47;;
28245;SDS011;15510;52.512;13.300;2022-10-15T14:34:57;2.75;;;1.60;;
28245;SDS011;15510;52.512;13.300;2022-10-15T14:40:00;7.20;;;4.75;;
28245;SDS011;15510;52.512;13.300;2022-10-15T14:42:36;4.32;;;3.20;;
28245;SDS011;15510;52.512;13.300;2022-10-15T14:45:11;2.38;;;2.17;;
28245;SDS011;15510;52.512;13.300;2022-10-15T14:48:05;2.83;;;1.85;;
28245;SDS011;15510;52.512;13.300;2022-10-15T14:50:39;5.43;;;2.90;;
28245;SDS011;15510;52.512;13.300;2022-10-15T14:53:07;2.17;;;1.98;;
28245;SDS011;15510;52.512;13.300;2022-10-15T14:55:40;2.33;;;1.48;;
28245;SDS011;15510;52.512;13.300;2022-10-15T14:58:09;4.47;;;2.50;;
28245;SDS011;15510;52.512;13.300;2022-10-15T15:00:40;2.03;;;1.80;;
28245;SDS011;15510;52.512;13.300;2022-10-15T15:03:16;2.85;;;1.35;;
28245;SDS011;15510;52.512;13.300;2022-10-15T15:05:48;3.88;;;3.30;;
28245;SDS011;15510;52.512;13.300;2022-10-15T15:08:16;18.48;;;14.02;;
28245;SDS011;15510;52.512;13.300;2022-10-15T15:10:42;8.48;;;5.38;;
28245;SDS011;15510;52.512;13.300;2022-10-15T15:13:25;4.97;;;3.97;;
28245;SDS011;15510;52.512;13.300;2022-10-15T15:15:52;4.65;;;4.10;;
28245;SDS011;15510;52.512;13.300;2022-10-15T15:18:18;4.20;;;2.90;;
28245;SDS011;15510;52.512;13.300;2022-10-15T15:20:45;2.50;;;2.15;;
28245;SDS011;15510;52.512;13.300;2022-10-15T15:23:19;2.03;;;1.55;;
28245;SDS011;15510;52.512;13.300;2022-10-15T15:25:46;5.50;;;3.80;;
28245;SDS011;15510;52.512;13.300;2022-10-15T15:28:13;3.10;;;1.55;;
28245;SDS011;15510;52.512;13.300;2022-10-15T15:30:41;2.65;;;1.40;;
28245;SDS011;15510;52.512;13.300;2022-10-15T15:33:12;1.77;;;1.60;;
28245;SDS011;15510;52.512;13.300;2022-10-15T15:35:46;3.42;;;2.03;;
28245;SDS011;15510;52.512;13.300;2022-10-15T15:38:24;3.13;;;1.50;;
28245;SDS011;15510;52.512;13.300;2022-10-15T15:40:59;2.47;;;1.70;;
28245;SDS011;15510;52.512;13.300;2022-10-15T15:43:27;5.35;;;2.47;;
28245;SDS011;15510;52.512;13.300;2022-10-15T15:45:53;2.28;;;2.05;;
28245;SDS011;15510;52.512;13.300;2022-10-15T15:48:18;2.25;;;1.73;;
28245;SDS011;15510;52.512;13.300;2022-10-15T15:50:44;6.90;;;2.33;;
28245;SDS011;15510;52.512;13.300;2022-10-15T15:53:11;2.08;;;1.88;;
28245;SDS011;15510;52.512;13.300;2022-10-15T15:55:37;3.53;;;3.10;;
28245;SDS011;15510;52.512;13.300;2022-10-15T15:58:02;4.63;;;3.67;;
28245;SDS011;15510;52.512;13.300;2022-10-15T16:00:28;5.53;;;2.88;;
28245;SDS011;15510;52.512;13.300;2022-10-15T16:02:54;3.70;;;3.28;;
28245;SDS011;15510;52.512;13.300;2022-10-15T16:05:19;3.60;;;3.30;;
28245;SDS011;15510;52.512;13.300;2022-10-15T16:07:47;4.00;;;2.65;;
28245;SDS011;15510;52.512;13.300;2022-10-15T16:10:13;6.15;;;5.45;;
28245;SDS011;15510;52.512;13.300;2022-10-15T16:12:39;8.10;;;2.35;;
28245;SDS011;15510;52.512;13.300;2022-10-15T16:15:05;4.30;;;2.92;;
28245;SDS011;15510;52.512;13.300;2022-10-15T16:17:31;6.03;;;3.42;;
28245;SDS011;15510;52.512;13.300;2022-10-15T16:19:57;8.20;;;5.35;;
28245;SDS011;15510;52.512;13.300;2022-10-15T16:22:22;3.95;;;3.25;;
28245;SDS011;15510;52.512;13.300;2022-10-15T16:24:48;6.03;;;3.30;;
28245;SDS011;15510;52.512;13.300;2022-10-15T16:27:14;7.93;;;4.32;;
28245;SDS011;15510;52.512;13.300;2022-10-15T16:29:39;7.95;;;4.88;;
28245;SDS011;15510;52.512;13.300;2022-10-15T16:32:05;7.20;;;4.18;;
28245;SDS011;15510;52.512;13.300;2022-10-15T16:34:30;6.90;;;5.30;;
28245;SDS011;15510;52.512;13.300;2022-10-15T16:36:56;6.25;;;4.60;;
28245;SDS011;15510;52.512;13.300;2022-10-15T16:39:22;8.77;;;5.70;;
28245;SDS011;15510;52.512;13.300;2022-10-15T16:41:48;6.72;;;4.50;;